createdAt,value
2023-05-21T00:02:20.954Z,76.70
2023-05-21T00:07:28.009Z,76.78
2023-05-21T00:12:35.036Z,76.70
2023-05-21T00:17:43.592Z,76.57
2023-05-21T00:22:50.813Z,76.38
2023-05-21T00:27:58.504Z,76.44
2023-05-21T00:33:05.807Z,76.39
2023-05-21T00:38:14.482Z,76.54
2023-05-21T00:43:26.364Z,76.60
2023-05-21T00:48:33.331Z,76.76
2023-05-21T00:53:40.966Z,76.76
2023-05-21T00:58:48.167Z,76.96
2023-05-21T01:03:58.046Z,77.01
2023-05-21T01:09:07.446Z,77.22
2023-05-21T01:14:16.973Z,77.23
2023-05-21T01:19:31.226Z,77.32
2023-05-21T01:24:38.905Z,77.43
2023-05-21T01:29:45.854Z,77.51
2023-05-21T01:34:57.944Z,77.51
2023-05-21T01:40:09.877Z,77.55
2023-05-21T01:45:17.962Z,77.48
2023-05-21T01:50:26.896Z,77.63
2023-05-21T01:55:34.552Z,77.72
2023-05-21T02:00:42.059Z,77.81
2023-05-21T02:05:52.090Z,77.83
2023-05-21T02:10:59.913Z,77.72
2023-05-21T02:16:10.297Z,77.92
2023-05-21T02:21:17.337Z,78.00
2023-05-21T02:26:24.498Z,78.08
2023-05-21T02:31:31.632Z,78.26
2023-05-21T02:36:38.677Z,78.26
2023-05-21T02:41:45.561Z,78.46
2023-05-21T02:46:52.654Z,78.67
2023-05-21T02:51:59.817Z,78.81
2023-05-21T02:57:07.054Z,78.84
2023-05-21T03:02:14.698Z,79.02
2023-05-21T03:07:21.839Z,79.04
2023-05-21T03:12:29.038Z,79.18
2023-05-21T03:17:36.199Z,79.22
2023-05-21T03:22:43.129Z,79.40
2023-05-21T03:27:50.328Z,79.43
2023-05-21T03:33:30.098Z,79.49
2023-05-21T03:38:37.599Z,79.58
2023-05-21T03:43:45.406Z,79.54
2023-05-21T03:48:52.447Z,79.65
2023-05-21T03:54:01.750Z,79.66
2023-05-21T03:59:08.884Z,79.98
2023-05-21T04:04:16.312Z,80.47
2023-05-21T04:09:23.823Z,80.28
2023-05-21T04:14:32.094Z,80.45
2023-05-21T04:19:39.143Z,80.43
2023-05-21T04:24:46.549Z,80.24
2023-05-21T04:29:58.070Z,80.32
2023-05-21T04:35:05.407Z,80.20
2023-05-21T04:40:18.221Z,80.39
2023-05-21T04:45:25.969Z,80.06
2023-05-21T04:50:33.777Z,80.00
2023-05-21T04:55:41.351Z,79.83
2023-05-21T05:00:51.056Z,79.70
2023-05-21T05:05:58.439Z,79.41
2023-05-21T05:11:05.585Z,79.22
2023-05-21T05:16:13.073Z,78.91
2023-05-21T05:21:23.625Z,78.45
2023-05-21T05:26:30.912Z,78.16
2023-05-21T05:31:38.349Z,77.77
2023-05-21T05:36:45.864Z,77.33
2023-05-21T05:41:53.197Z,77.02
2023-05-21T05:47:01.436Z,76.59
2023-05-21T05:52:09.172Z,76.22
2023-05-21T05:57:16.473Z,75.88
2023-05-21T06:02:25.572Z,75.48
2023-05-21T06:07:34.085Z,75.23
2023-05-21T06:12:41.016Z,74.65
2023-05-21T06:17:48.804Z,74.53
2023-05-21T06:22:57.695Z,74.01
2023-05-21T06:28:06.122Z,73.67
2023-05-21T06:33:13.549Z,73.40
2023-05-21T06:38:20.688Z,72.97
2023-05-21T06:43:28.849Z,72.70
2023-05-21T06:48:54.470Z,72.41
2023-05-21T06:54:01.398Z,71.62
2023-05-21T06:59:08.827Z,71.29
2023-05-21T07:04:16.081Z,70.80
2023-05-21T07:09:24.191Z,70.31
2023-05-21T07:14:31.914Z,69.99
2023-05-21T07:19:39.293Z,69.55
2023-05-21T07:24:46.549Z,68.65
2023-05-21T07:29:53.456Z,68.38
2023-05-21T07:35:05.720Z,68.23
2023-05-21T07:40:14.433Z,67.48
2023-05-21T07:45:22.538Z,67.74
2023-05-21T07:50:29.668Z,67.26
2023-05-21T07:55:36.880Z,66.71
2023-05-21T08:00:47.879Z,65.87
2023-05-21T08:05:55.014Z,65.96
2023-05-21T08:11:02.484Z,65.80
2023-05-21T08:16:11.519Z,64.64
2023-05-21T08:21:19.044Z,64.83
2023-05-21T08:26:26.212Z,64.23
2023-05-21T08:31:33.683Z,63.83
2023-05-21T08:36:43.123Z,63.30
2023-05-21T08:42:10.939Z,61.23
2023-05-21T08:47:21.696Z,61.70
2023-05-21T08:52:28.978Z,61.00
2023-05-21T08:57:36.406Z,61.13
2023-05-21T09:02:46.477Z,60.85
2023-05-21T09:08:13.821Z,60.18
2023-05-21T09:13:54.998Z,59.38
2023-05-21T09:19:07.725Z,58.70
2023-05-21T09:24:17.551Z,58.42
2023-05-21T09:29:26.184Z,56.85
2023-05-21T09:34:36.874Z,56.79
2023-05-21T09:39:44.248Z,55.85
2023-05-21T09:44:51.570Z,56.43
2023-05-21T09:50:01.313Z,55.67
2023-05-21T09:55:11.921Z,54.93
2023-05-21T10:00:23.611Z,54.15
2023-05-21T10:05:32.173Z,52.90
2023-05-21T10:10:41.878Z,53.21
2023-05-21T10:15:50.913Z,51.91
2023-05-21T10:20:59.236Z,50.35
2023-05-21T10:26:08.333Z,50.35
2023-05-21T10:31:15.861Z,49.66
2023-05-21T10:36:23.092Z,48.37
2023-05-21T10:41:35.143Z,48.28
2023-05-21T10:47:06.877Z,48.12
2023-05-21T10:52:26.179Z,46.60
2023-05-21T10:57:58.283Z,45.71
2023-05-21T11:03:07.123Z,46.18
2023-05-21T11:08:26.477Z,45.75
2023-05-21T11:13:49.370Z,44.59
2023-05-21T11:19:05.653Z,44.34
2023-05-21T11:24:21.479Z,44.02
2023-05-21T11:29:40.659Z,42.67
2023-05-21T11:34:49.284Z,41.95
2023-05-21T11:39:57.377Z,40.98
2023-05-21T11:45:05.986Z,41.04
2023-05-21T11:50:15.805Z,41.55
2023-05-21T11:55:27.001Z,40.14
2023-05-21T12:00:40.150Z,40.06
2023-05-21T12:05:51.758Z,39.69
2023-05-21T12:11:01.822Z,36.24
2023-05-21T12:16:10.119Z,36.11
2023-05-21T12:21:18.022Z,36.34
2023-05-21T12:26:26.592Z,34.94
2023-05-21T12:31:33.861Z,34.48
2023-05-21T12:36:41.027Z,33.36
2023-05-21T12:41:54.683Z,33.27
2023-05-21T12:47:01.967Z,32.09
2023-05-21T12:52:11.863Z,31.59
2023-05-21T12:57:20.131Z,29.46
2023-05-21T13:02:28.882Z,28.94
2023-05-21T13:07:38.569Z,28.54
2023-05-21T13:12:46.138Z,27.98
2023-05-21T13:17:55.164Z,27.47
2023-05-21T13:23:06.322Z,26.99
2023-05-21T13:28:15.471Z,27.22
2023-05-21T13:33:22.987Z,26.66
2023-05-21T13:38:30.085Z,26.99
2023-05-21T13:43:37.067Z,26.75
2023-05-21T13:48:43.922Z,25.67
2023-05-21T13:53:50.987Z,25.24
2023-05-21T13:58:58.005Z,24.28
2023-05-21T14:04:05.783Z,23.18
2023-05-21T14:09:13.254Z,23.96
2023-05-21T14:14:20.231Z,23.91
2023-05-21T14:19:27.504Z,23.84
2023-05-21T14:24:34.547Z,24.22
2023-05-21T14:29:41.932Z,24.20
2023-05-21T14:34:48.921Z,24.87
2023-05-21T14:39:56.070Z,24.63
2023-05-21T14:45:16.932Z,24.76
2023-05-21T14:50:25.346Z,25.14
2023-05-21T14:55:35.304Z,25.36
2023-05-21T15:00:44.550Z,25.53
2023-05-21T15:05:52.367Z,25.12
2023-05-21T15:10:59.505Z,25.11
2023-05-21T15:16:07.769Z,25.26
2023-05-21T15:21:14.817Z,24.82
2023-05-21T15:26:21.905Z,24.21
2023-05-21T15:31:27.340Z,23.54
2023-05-21T15:36:34.248Z,23.74
2023-05-21T15:41:41.535Z,23.33
2023-05-21T15:46:49.857Z,23.27
2023-05-21T15:51:57.992Z,23.66
2023-05-21T15:57:05.002Z,23.67
2023-05-21T16:02:13.155Z,24.06
2023-05-21T16:07:20.112Z,24.84
2023-05-21T16:12:27.300Z,24.97
2023-05-21T16:17:34.220Z,25.32
2023-05-21T16:22:41.851Z,25.99
2023-05-21T16:27:49.000Z,26.21
2023-05-21T16:32:56.082Z,26.40
2023-05-21T16:38:03.047Z,26.71
2023-05-21T16:43:09.973Z,27.18
2023-05-21T16:48:17.740Z,27.29
2023-05-21T16:53:24.570Z,27.05
2023-05-21T16:58:33.313Z,27.38
2023-05-21T17:03:43.066Z,27.15
2023-05-21T17:08:50.587Z,27.68
2023-05-21T17:13:57.502Z,27.91
2023-05-21T17:19:04.857Z,28.18
2023-05-21T17:24:12.019Z,28.41
2023-05-21T17:29:19.119Z,28.71
2023-05-21T17:34:29.412Z,29.53
2023-05-21T17:39:36.516Z,29.86
2023-05-21T17:44:43.445Z,30.19
2023-05-21T17:49:50.366Z,30.44
2023-05-21T17:54:57.412Z,30.92
2023-05-21T18:00:05.162Z,31.42
2023-05-21T18:05:19.029Z,31.83
2023-05-21T18:10:26.000Z,32.31
2023-05-21T18:15:33.557Z,32.70
2023-05-21T18:20:40.445Z,33.17
2023-05-21T18:25:47.374Z,33.74
2023-05-21T18:30:55.287Z,34.27
2023-05-21T18:36:02.219Z,34.81
2023-05-21T18:41:09.223Z,35.12
2023-05-21T18:46:16.143Z,35.88
2023-05-21T18:51:23.225Z,36.38
2023-05-21T18:56:30.373Z,36.80
2023-05-21T19:01:37.413Z,37.29
2023-05-21T19:06:44.418Z,37.80
2023-05-21T19:11:52.026Z,38.35
2023-05-21T19:16:58.847Z,38.79
2023-05-21T19:22:06.166Z,39.28
2023-05-21T19:27:13.027Z,39.73
2023-05-21T19:32:21.315Z,40.23
2023-05-21T19:37:28.191Z,40.78
2023-05-21T19:42:35.390Z,41.30
2023-05-21T19:47:42.724Z,41.73
2023-05-21T19:52:49.821Z,42.15
2023-05-21T19:57:56.683Z,42.81
2023-05-21T20:03:03.752Z,43.28
2023-05-21T20:08:10.970Z,43.79
2023-05-21T20:13:18.020Z,44.17
2023-05-21T20:18:25.116Z,44.71
2023-05-21T20:23:32.043Z,45.21
2023-05-21T20:28:39.070Z,45.37
2023-05-21T20:33:46.537Z,45.97
2023-05-21T20:38:53.445Z,46.41
2023-05-21T20:44:00.373Z,46.61
2023-05-21T20:49:07.663Z,47.19
2023-05-21T20:54:14.948Z,47.48
2023-05-21T20:59:21.829Z,47.70
2023-05-21T21:04:28.795Z,48.25
2023-05-21T21:09:35.955Z,48.67
2023-05-21T21:14:42.861Z,48.94
2023-05-21T21:19:49.829Z,49.29
2023-05-21T21:24:56.798Z,49.71
2023-05-21T21:30:04.822Z,49.97
2023-05-21T21:35:12.552Z,50.32
2023-05-21T21:40:19.797Z,50.59
2023-05-21T21:45:27.783Z,50.98
2023-05-21T21:50:34.691Z,51.20
2023-05-21T21:55:41.529Z,51.62
2023-05-21T22:00:48.489Z,51.97
2023-05-21T22:05:56.408Z,52.11
2023-05-21T22:11:03.304Z,52.65
2023-05-21T22:16:11.960Z,52.86
2023-05-21T22:21:18.916Z,53.12
2023-05-21T22:26:25.968Z,53.62
2023-05-21T22:31:33.060Z,53.98
2023-05-21T22:36:40.024Z,54.32
2023-05-21T22:41:47.597Z,54.67
2023-05-21T22:46:56.612Z,54.92
2023-05-21T22:52:05.473Z,55.30
2023-05-21T22:57:12.493Z,55.58
2023-05-21T23:02:19.602Z,55.81
2023-05-21T23:07:26.855Z,56.28
2023-05-21T23:12:33.837Z,56.45
2023-05-21T23:17:40.801Z,56.84
2023-05-21T23:22:47.810Z,57.28
2023-05-21T23:27:55.035Z,57.75
2023-05-21T23:33:02.326Z,58.13
2023-05-21T23:38:09.401Z,58.21
2023-05-21T23:43:16.580Z,58.45
2023-05-21T23:48:23.682Z,58.88
2023-05-21T23:53:30.830Z,59.10
2023-05-21T23:58:37.790Z,59.66
